createdAt,value
2017-05-01T00:00:51.309Z,7.10
2017-05-01T00:03:26.339Z,7.10
2017-05-01T00:06:01.779Z,7.10
2017-05-01T00:08:38.059Z,7.10
2017-05-01T00:11:13.531Z,7.00
2017-05-01T00:13:48.706Z,7.00
2017-05-01T00:16:24.202Z,7.00
2017-05-01T00:19:00.101Z,7.00
2017-05-01T00:21:36.045Z,6.90
2017-05-01T00:24:11.193Z,7.00
2017-05-01T00:26:46.441Z,6.90
2017-05-01T00:29:21.725Z,6.90
2017-05-01T00:31:57.689Z,6.90
2017-05-01T00:34:32.851Z,6.90
2017-05-01T00:37:09.027Z,6.90
2017-05-01T00:39:44.803Z,6.80
2017-05-01T00:42:22.425Z,6.80
2017-05-01T00:44:57.487Z,6.80
2017-05-01T00:47:32.741Z,6.80
2017-05-01T00:50:08.002Z,6.80
2017-05-01T00:52:43.330Z,6.80
2017-05-01T00:55:19.252Z,6.70
2017-05-01T00:57:54.657Z,6.70
2017-05-01T01:00:30.021Z,6.70
2017-05-01T01:03:05.538Z,6.70
2017-05-01T01:05:40.846Z,6.70
2017-05-01T01:08:16.146Z,6.70
2017-05-01T01:11:10.451Z,6.60
2017-05-01T01:13:45.913Z,6.60
2017-05-01T01:16:20.953Z,6.60
2017-05-01T01:18:56.104Z,6.60
2017-05-01T01:21:32.786Z,6.60
2017-05-01T01:24:08.093Z,6.60
2017-05-01T01:26:43.096Z,6.50
2017-05-01T01:29:18.918Z,6.50
2017-05-01T01:31:54.796Z,6.50
2017-05-01T01:34:30.054Z,6.50
2017-05-01T01:37:05.313Z,6.50
2017-05-01T01:39:40.657Z,6.40
2017-05-01T01:42:15.923Z,6.40
2017-05-01T01:44:51.238Z,6.40
2017-05-01T01:47:26.495Z,6.40
2017-05-01T01:50:02.533Z,6.40
2017-05-01T01:52:38.468Z,6.40
2017-05-01T01:55:13.846Z,6.40
2017-05-01T01:57:49.094Z,6.30
2017-05-01T02:00:24.399Z,6.30
2017-05-01T02:02:59.541Z,6.40
2017-05-01T02:05:35.601Z,6.30
2017-05-01T02:08:10.829Z,6.30
2017-05-01T02:10:46.668Z,6.30
2017-05-01T02:13:22.717Z,6.30
2017-05-01T02:15:58.020Z,6.30
2017-05-01T02:18:33.337Z,6.20
2017-05-01T02:21:08.596Z,6.20
2017-05-01T02:23:43.806Z,6.20
2017-05-01T02:26:19.109Z,6.20
2017-05-01T02:28:54.374Z,6.20
2017-05-01T02:31:29.912Z,6.20
2017-05-01T02:34:05.074Z,6.20
2017-05-01T02:36:40.942Z,6.20
2017-05-01T02:39:16.157Z,6.10
2017-05-01T02:41:51.600Z,6.20
2017-05-01T02:44:26.601Z,6.20
2017-05-01T02:47:02.448Z,6.20
2017-05-01T02:49:37.521Z,6.10
2017-05-01T02:52:12.788Z,6.10
2017-05-01T02:54:48.770Z,6.10
2017-05-01T02:57:23.994Z,6.10
2017-05-01T02:59:59.301Z,6.10
2017-05-01T03:02:34.519Z,6.10
2017-05-01T03:05:09.972Z,6.10
2017-05-01T03:07:45.075Z,6.10
2017-05-01T03:10:20.481Z,6.10
2017-05-01T03:12:55.645Z,6.10
2017-05-01T03:15:31.657Z,6.00
2017-05-01T03:18:06.918Z,6.10
2017-05-01T03:20:42.221Z,6.10
2017-05-01T03:23:17.565Z,6.10
2017-05-01T03:25:52.804Z,6.00
2017-05-01T03:28:27.857Z,6.00
2017-05-01T03:31:03.384Z,6.10
2017-05-01T03:33:38.727Z,6.10
2017-05-01T03:36:14.170Z,6.10
2017-05-01T03:38:50.122Z,6.10
2017-05-01T03:41:26.488Z,6.10
2017-05-01T03:44:01.525Z,6.10
2017-05-01T03:46:37.153Z,6.10
2017-05-01T03:49:12.456Z,6.10
2017-05-01T03:51:47.853Z,6.10
2017-05-01T03:54:23.398Z,6.10
2017-05-01T03:56:59.005Z,6.20
2017-05-01T03:59:34.785Z,6.10
2017-05-01T04:02:10.620Z,6.10
2017-05-01T04:04:46.589Z,6.20
2017-05-01T04:07:21.833Z,6.20
2017-05-01T04:09:57.189Z,6.20
2017-05-01T04:12:33.104Z,6.20
2017-05-01T04:15:08.883Z,6.20
2017-05-01T04:17:44.797Z,6.20
2017-05-01T04:20:20.085Z,6.20
2017-05-01T04:22:55.301Z,6.20
2017-05-01T04:25:31.181Z,6.20
2017-05-01T04:28:06.458Z,6.30
2017-05-01T04:30:41.736Z,6.30
2017-05-01T04:33:17.002Z,6.30
2017-05-01T04:35:52.333Z,6.30
2017-05-01T04:38:27.673Z,6.30
2017-05-01T04:41:03.014Z,6.40
2017-05-01T04:43:38.246Z,6.50
2017-05-01T04:46:13.605Z,6.50
2017-05-01T04:48:48.886Z,6.50
2017-05-01T04:51:24.168Z,6.60
2017-05-01T04:53:59.593Z,6.70
2017-05-01T05:46:06.609Z,9.00
2017-05-01T05:48:41.827Z,9.10
2017-05-01T05:51:17.185Z,8.50
2017-05-01T05:53:52.373Z,8.50
2017-05-01T05:56:27.576Z,9.20
2017-05-01T05:59:03.601Z,9.20
2017-05-01T06:01:38.696Z,9.00
2017-05-01T06:04:13.794Z,9.30
2017-05-01T06:06:49.192Z,8.90
2017-05-01T06:09:25.083Z,8.70
2017-05-01T06:12:01.050Z,9.00
2017-05-01T06:14:36.891Z,9.20
2017-05-01T06:17:12.334Z,9.40
2017-05-01T06:19:47.573Z,10.00
2017-05-01T06:22:22.613Z,9.90
2017-05-01T06:24:58.069Z,9.90
2017-05-01T06:27:34.119Z,10.10
2017-05-01T06:30:09.362Z,10.10
2017-05-01T06:32:44.690Z,10.30
2017-05-01T06:35:19.824Z,10.10
2017-05-01T06:37:54.907Z,10.10
2017-05-01T06:40:30.223Z,10.20
2017-05-01T06:43:06.379Z,10.30
2017-05-01T06:45:41.549Z,10.30
2017-05-01T06:48:16.715Z,10.50
2017-05-01T06:50:52.693Z,10.20
2017-05-01T06:53:28.711Z,9.60
2017-05-01T06:56:03.833Z,9.80
2017-05-01T06:58:39.077Z,10.10
2017-05-01T07:01:14.412Z,10.50
2017-05-01T07:03:49.729Z,10.40
2017-05-01T07:06:25.763Z,10.20
2017-05-01T07:09:01.020Z,10.80
2017-05-01T07:11:36.232Z,11.30
2017-05-01T07:14:11.405Z,11.50
2017-05-01T07:16:46.917Z,11.00
2017-05-01T07:19:22.072Z,11.00
2017-05-01T07:22:00.159Z,11.20
2017-05-01T07:24:35.274Z,10.70
2017-05-01T07:27:10.478Z,10.30
2017-05-01T07:29:45.773Z,10.50
2017-05-01T07:32:20.930Z,10.50
2017-05-01T07:34:56.141Z,10.70
2017-05-01T07:37:31.494Z,11.10
2017-05-01T07:40:06.625Z,10.80
2017-05-01T07:42:41.653Z,10.80
2017-05-01T07:45:16.997Z,10.50
2017-05-01T07:47:52.186Z,10.70
2017-05-01T07:50:27.382Z,10.80
2017-05-01T07:53:03.425Z,10.90
2017-05-01T07:55:38.679Z,10.80
2017-05-01T07:58:14.128Z,10.90
2017-05-01T08:00:50.385Z,11.20
2017-05-01T08:03:25.492Z,11.40
2017-05-01T08:06:01.532Z,11.30
2017-05-01T08:08:38.550Z,11.20
2017-05-01T08:11:13.815Z,11.30
2017-05-01T08:13:49.033Z,11.40
2017-05-01T08:16:24.946Z,11.50
2017-05-01T08:19:01.751Z,11.30
2017-05-01T08:21:37.139Z,11.40
2017-05-01T08:24:13.072Z,11.50
2017-05-01T08:26:48.991Z,11.60
2017-05-01T08:29:24.617Z,11.60
2017-05-01T08:31:59.784Z,11.70
2017-05-01T08:34:34.922Z,11.90
2017-05-01T08:37:10.184Z,12.00
2017-05-01T08:39:45.404Z,12.30
2017-05-01T08:42:20.538Z,12.40
2017-05-01T08:44:55.680Z,12.70
2017-05-01T08:47:30.913Z,13.10
2017-05-01T08:50:06.882Z,12.90
2017-05-01T08:52:42.142Z,13.00
2017-05-01T08:55:17.358Z,13.00
2017-05-01T08:57:52.494Z,13.20
2017-05-01T09:00:27.870Z,13.50
2017-05-01T09:03:03.081Z,13.70
2017-05-01T09:05:38.182Z,13.70
2017-05-01T09:08:13.277Z,13.80
2017-05-01T09:10:49.190Z,14.00
2017-05-01T09:13:24.360Z,14.30
2017-05-01T09:15:59.608Z,15.00
2017-05-01T09:18:34.834Z,14.80
2017-05-01T09:21:10.213Z,14.50
2017-05-01T09:23:45.470Z,15.10
2017-05-01T09:26:20.698Z,14.90
2017-05-01T09:28:57.200Z,14.70
2017-05-01T09:31:33.159Z,14.90
2017-05-01T09:34:08.598Z,14.70
2017-05-01T09:36:44.634Z,14.60
2017-05-01T09:39:19.999Z,14.60
2017-05-01T09:41:55.135Z,14.90
2017-05-01T09:44:30.961Z,15.00
2017-05-01T09:47:06.182Z,15.10
2017-05-01T09:49:41.939Z,14.60
2017-05-01T09:52:17.310Z,14.10
2017-05-01T09:54:52.617Z,14.40
2017-05-01T09:57:28.613Z,14.50
2017-05-01T10:00:03.918Z,14.60
2017-05-01T10:02:39.185Z,14.60
2017-05-01T10:05:15.133Z,14.80
2017-05-01T10:07:51.719Z,15.50
2017-05-01T10:10:27.753Z,15.60
2017-05-01T10:13:04.333Z,15.30
2017-05-01T10:15:39.580Z,15.00
2017-05-01T10:18:14.874Z,15.20
2017-05-01T10:20:50.811Z,14.90
2017-05-01T10:23:27.062Z,14.70
2017-05-01T10:26:05.999Z,14.90
2017-05-01T10:28:41.011Z,15.00
2017-05-01T10:31:17.885Z,14.90
2017-05-01T10:33:54.835Z,14.90
2017-05-01T10:36:29.977Z,14.90
2017-05-01T10:39:07.693Z,14.70
2017-05-01T10:41:44.045Z,15.00
2017-05-01T10:44:19.623Z,14.80
2017-05-01T10:46:55.530Z,14.40
2017-05-01T10:49:31.417Z,14.70
2017-05-01T10:52:06.829Z,14.70
2017-05-01T10:54:42.189Z,14.80
2017-05-01T10:57:21.679Z,14.70
2017-05-01T10:59:57.290Z,14.80
2017-05-01T11:02:32.458Z,15.40
2017-05-01T11:05:07.786Z,15.60
2017-05-01T11:07:43.899Z,15.70
2017-05-01T11:10:19.155Z,15.50
2017-05-01T11:12:54.303Z,15.20
2017-05-01T11:15:29.685Z,15.10
2017-05-01T11:18:04.949Z,14.90
2017-05-01T11:20:40.357Z,15.00
2017-05-01T11:23:17.002Z,15.30
2017-05-01T11:25:52.289Z,14.80
2017-05-01T11:28:28.254Z,14.50
2017-05-01T11:31:03.565Z,14.50
2017-05-01T11:33:38.666Z,15.30
2017-05-01T11:36:13.889Z,15.10
2017-05-01T11:38:48.926Z,15.20
2017-05-01T11:41:24.243Z,14.70
2017-05-01T11:43:59.578Z,14.60
2017-05-01T11:46:34.964Z,15.10
2017-05-01T11:49:10.242Z,15.10
2017-05-01T11:51:46.245Z,14.80
2017-05-01T11:54:22.295Z,14.80
2017-05-01T11:56:57.736Z,15.30
2017-05-01T11:59:33.048Z,15.10
2017-05-01T12:02:08.257Z,14.70
2017-05-01T12:04:43.449Z,14.90
2017-05-01T12:09:54.451Z,14.90
2017-05-01T12:12:29.775Z,14.90
2017-05-01T12:15:05.006Z,14.70
2017-05-01T12:17:40.110Z,14.60
2017-05-01T12:20:16.017Z,14.60
2017-05-01T12:22:51.374Z,14.70
2017-05-01T12:25:26.578Z,14.50
2017-05-01T12:28:02.500Z,14.70
2017-05-01T12:30:37.844Z,14.70
2017-05-01T12:33:13.023Z,15.20
2017-05-01T12:35:48.214Z,14.60
2017-05-01T12:38:23.418Z,14.70
2017-05-01T12:40:58.501Z,15.00
2017-05-01T12:43:33.672Z,15.30
2017-05-01T12:46:08.887Z,15.10
2017-05-01T12:48:44.975Z,15.00
2017-05-01T12:51:20.261Z,15.10
2017-05-01T12:53:56.312Z,15.00
2017-05-01T12:56:31.609Z,14.90
2017-05-01T12:59:10.766Z,14.70
2017-05-01T13:01:46.069Z,14.40
2017-05-01T13:04:22.076Z,14.30
2017-05-01T13:06:57.592Z,14.60
2017-05-01T13:09:32.908Z,14.60
2017-05-01T13:12:08.448Z,14.20
2017-05-01T13:14:43.557Z,14.40
2017-05-01T13:17:18.725Z,14.90
2017-05-01T13:19:54.062Z,14.60
2017-05-01T13:22:29.361Z,14.20
2017-05-01T13:25:04.761Z,13.90
2017-05-01T13:27:40.705Z,14.20
2017-05-01T13:30:16.059Z,14.50
2017-05-01T13:32:52.116Z,14.60
2017-05-01T13:35:27.457Z,14.40
2017-05-01T13:38:03.395Z,14.10
2017-05-01T13:40:38.446Z,14.30
2017-05-01T13:43:13.865Z,14.50
2017-05-01T13:45:49.029Z,14.50
2017-05-01T13:48:24.086Z,14.50
2017-05-01T13:50:59.261Z,14.60
2017-05-01T13:53:34.512Z,14.40
2017-05-01T13:56:09.790Z,14.60
2017-05-01T13:58:45.896Z,14.10
2017-05-01T14:01:21.606Z,13.80
2017-05-01T14:03:57.446Z,13.70
2017-05-01T14:06:32.713Z,13.80
2017-05-01T14:09:08.023Z,13.80
2017-05-01T14:11:43.297Z,13.80
2017-05-01T14:14:18.876Z,14.40
2017-05-01T14:16:54.073Z,14.20
2017-05-01T14:19:29.433Z,13.90
2017-05-01T14:22:04.665Z,14.00
2017-05-01T14:24:39.889Z,14.00
2017-05-01T14:27:15.880Z,13.70
2017-05-01T14:29:51.094Z,13.20
2017-05-01T14:32:27.044Z,13.00
2017-05-01T14:35:03.148Z,13.00
2017-05-01T14:37:38.318Z,12.90
2017-05-01T14:40:13.990Z,12.60
2017-05-01T14:42:49.013Z,12.70
2017-05-01T14:45:24.334Z,12.60
2017-05-01T14:48:00.513Z,12.80
2017-05-01T14:50:35.807Z,12.70
2017-05-01T14:53:11.218Z,12.40
2017-05-01T14:55:46.370Z,12.40
2017-05-01T14:58:21.506Z,12.40
2017-05-01T15:00:57.136Z,12.60
2017-05-01T15:03:32.889Z,12.70
2017-05-01T15:06:08.092Z,12.70
2017-05-01T15:08:44.115Z,12.20
2017-05-01T15:11:19.367Z,12.10
2017-05-01T15:13:57.789Z,12.00
2017-05-01T15:16:34.049Z,11.90
2017-05-01T15:19:10.389Z,11.80
2017-05-01T15:21:45.641Z,11.80
2017-05-01T15:24:20.966Z,12.10
2017-05-01T15:26:57.826Z,12.10
2017-05-01T15:29:32.905Z,12.00
2017-05-01T15:32:08.999Z,11.90
2017-05-01T15:34:46.157Z,12.00
2017-05-01T15:37:21.693Z,11.90
2017-05-01T15:39:57.833Z,11.80
2017-05-01T15:42:33.187Z,11.70
2017-05-01T15:45:08.856Z,11.90
2017-05-01T15:47:44.282Z,11.90
2017-05-01T15:50:19.526Z,11.80
2017-05-01T15:52:54.699Z,11.70
2017-05-01T15:55:30.000Z,11.70
2017-05-01T15:58:05.280Z,11.70
2017-05-01T16:00:41.154Z,11.50
2017-05-01T16:03:17.473Z,11.40
2017-05-01T16:05:52.710Z,11.50
2017-05-01T16:08:29.101Z,11.50
2017-05-01T16:11:04.531Z,11.40
2017-05-01T16:13:40.646Z,11.50
2017-05-01T16:16:16.701Z,11.40
2017-05-01T16:18:51.857Z,11.50
2017-05-01T16:21:27.129Z,11.30
2017-05-01T16:24:02.253Z,11.30
2017-05-01T16:26:38.449Z,11.50
2017-05-01T16:29:14.402Z,11.40
2017-05-01T16:31:50.241Z,11.40
2017-05-01T16:34:25.430Z,11.20
2017-05-01T16:37:01.100Z,11.10
2017-05-01T16:39:37.753Z,11.20
2017-05-01T16:42:13.410Z,11.10
2017-05-01T16:44:49.890Z,11.20
2017-05-01T16:47:27.011Z,11.20
2017-05-01T16:50:04.599Z,11.10
2017-05-01T16:52:39.668Z,11.10
2017-05-01T16:55:15.122Z,11.00
2017-05-01T16:57:52.259Z,10.80
2017-05-01T17:00:29.334Z,10.80
2017-05-01T17:03:04.718Z,10.80
2017-05-01T17:05:41.838Z,10.70
2017-05-01T17:08:20.724Z,10.70
2017-05-01T17:10:56.123Z,10.80
2017-05-01T17:13:33.210Z,10.80
2017-05-01T17:16:08.754Z,10.70
2017-05-01T17:18:44.887Z,10.70
2017-05-01T17:21:20.706Z,10.60
2017-05-01T17:23:55.888Z,10.50
2017-05-01T17:26:33.163Z,10.50
2017-05-01T17:29:08.505Z,10.40
2017-05-01T17:31:44.099Z,10.30
2017-05-01T17:34:21.362Z,10.30
2017-05-01T17:36:57.703Z,10.20
2017-05-01T17:39:33.402Z,10.10
2017-05-01T17:42:09.357Z,10.10
2017-05-01T17:44:44.665Z,10.00
2017-05-01T17:47:20.418Z,10.00
2017-05-01T17:49:55.794Z,10.00
2017-05-01T17:52:32.845Z,10.00
2017-05-01T17:55:09.668Z,10.00
2017-05-01T17:57:46.626Z,10.00
2017-05-01T18:00:23.313Z,9.90
2017-05-01T18:03:00.019Z,9.80
2017-05-01T18:05:36.006Z,9.80
2017-05-01T18:08:11.889Z,9.80
2017-05-01T18:10:47.185Z,9.80
2017-05-01T18:13:22.370Z,9.80
2017-05-01T18:15:57.541Z,9.80
2017-05-01T18:18:32.916Z,9.70
2017-05-01T18:21:08.250Z,9.70
2017-05-01T18:23:44.585Z,9.70
2017-05-01T18:26:19.773Z,9.70
2017-05-01T18:28:55.597Z,9.60
2017-05-01T18:31:32.188Z,9.60
2017-05-01T18:34:07.367Z,9.50
2017-05-01T18:36:44.951Z,9.50
2017-05-01T18:39:20.996Z,9.50
2017-05-01T18:41:56.218Z,9.60
2017-05-01T18:44:32.018Z,9.50
2017-05-01T18:47:07.237Z,9.40
2017-05-01T18:49:44.199Z,9.40
2017-05-01T18:52:19.427Z,9.40
2017-05-01T18:54:58.535Z,9.30
2017-05-01T18:57:35.679Z,9.30
2017-05-01T19:00:10.841Z,9.30
2017-05-01T19:02:46.056Z,9.30
2017-05-01T19:05:21.374Z,9.40
2017-05-01T19:07:56.622Z,9.40
2017-05-01T19:10:32.470Z,9.40
2017-05-01T19:13:07.649Z,9.30
2017-05-01T19:15:43.244Z,9.30
2017-05-01T19:18:18.585Z,9.20
2017-05-01T19:20:53.884Z,9.20
2017-05-01T19:23:29.499Z,9.20
2017-05-01T19:26:04.914Z,9.20
2017-05-01T19:28:40.537Z,9.20
2017-05-01T19:31:16.308Z,9.10
2017-05-01T19:33:51.405Z,9.10
2017-05-01T19:36:27.377Z,9.10
2017-05-01T19:39:04.042Z,9.10
2017-05-01T19:44:15.681Z,9.00
2017-05-01T19:46:51.042Z,9.00
2017-05-01T19:49:26.645Z,9.00
2017-05-01T19:52:01.946Z,9.10
2017-05-01T19:54:38.046Z,9.10
2017-05-01T19:57:13.262Z,9.00
2017-05-01T19:59:48.433Z,9.00
2017-05-01T20:02:23.640Z,9.00
2017-05-01T20:04:58.840Z,9.00
2017-05-01T20:07:35.602Z,8.90
2017-05-01T20:10:19.696Z,9.00
2017-05-01T20:12:55.652Z,9.00
2017-05-01T20:15:32.870Z,9.00
2017-05-01T20:18:12.153Z,8.90
2017-05-01T20:20:48.078Z,8.90
2017-05-01T20:23:23.538Z,8.90
2017-05-01T20:25:58.889Z,8.90
2017-05-01T20:28:35.406Z,8.90
2017-05-01T20:31:11.349Z,8.90
2017-05-01T20:33:48.381Z,8.90
2017-05-01T20:36:24.982Z,8.90
2017-05-01T20:39:00.320Z,8.90
2017-05-01T20:41:35.527Z,8.90
2017-05-01T20:44:10.923Z,8.90
2017-05-01T20:46:46.198Z,8.90
2017-05-01T20:49:21.420Z,8.90
2017-05-01T20:51:56.573Z,8.90
2017-05-01T20:54:32.309Z,8.90
2017-05-01T20:57:13.873Z,8.80
2017-05-01T20:59:50.226Z,8.80
2017-05-01T21:02:25.413Z,8.80
2017-05-01T21:05:00.692Z,8.90
2017-05-01T21:07:35.976Z,8.80
2017-05-01T21:10:11.239Z,8.80
2017-05-01T21:12:47.384Z,8.80
2017-05-01T21:15:22.584Z,8.80
2017-05-01T21:17:58.175Z,8.80
2017-05-01T21:20:33.439Z,8.70
2017-05-01T21:23:08.823Z,8.70
2017-05-01T21:25:43.880Z,8.70
2017-05-01T21:28:19.471Z,8.60
2017-05-01T21:30:54.678Z,8.60
2017-05-01T21:33:30.125Z,8.70
2017-05-01T21:36:05.919Z,8.60
2017-05-01T21:38:41.210Z,8.60
2017-05-01T21:41:16.415Z,8.70
2017-05-01T21:43:52.613Z,8.60
2017-05-01T21:46:27.733Z,8.60
2017-05-01T21:49:02.931Z,8.60
2017-05-01T21:51:38.224Z,8.60
2017-05-01T21:54:13.254Z,8.60
2017-05-01T21:56:48.449Z,8.60
2017-05-01T21:59:23.630Z,8.60
2017-05-01T22:01:58.873Z,8.50
2017-05-01T22:04:34.013Z,8.50
2017-05-01T22:07:09.343Z,8.50
2017-05-01T22:09:44.349Z,8.40
2017-05-01T22:12:20.286Z,8.30
2017-05-01T22:14:55.876Z,8.40
2017-05-01T22:17:31.022Z,8.40
2017-05-01T22:20:07.111Z,8.40
2017-05-01T22:22:42.205Z,8.40
2017-05-01T22:25:18.076Z,8.30
2017-05-01T22:27:53.282Z,8.30
2017-05-01T22:30:29.251Z,8.30
2017-05-01T22:33:04.502Z,8.30
2017-05-01T22:35:39.728Z,8.30
2017-05-01T22:38:14.969Z,8.30
2017-05-01T22:40:50.308Z,8.30
2017-05-01T22:43:25.517Z,8.20
2017-05-01T22:46:00.753Z,8.20
2017-05-01T22:48:38.155Z,8.20
2017-05-01T22:51:13.306Z,8.20
2017-05-01T22:53:54.365Z,8.20
2017-05-01T22:56:29.662Z,8.30
2017-05-01T23:02:10.198Z,8.20
2017-05-01T23:04:45.732Z,8.20
2017-05-01T23:07:21.436Z,8.20
2017-05-01T23:09:56.618Z,8.20
2017-05-01T23:12:31.866Z,8.20
2017-05-01T23:15:07.199Z,8.10
2017-05-01T23:17:42.748Z,8.10
2017-05-01T23:20:18.001Z,8.10
2017-05-01T23:22:53.228Z,8.10
2017-05-01T23:25:28.469Z,8.10
2017-05-01T23:28:03.650Z,8.10
2017-05-01T23:30:38.830Z,8.10
2017-05-01T23:33:13.856Z,8.10
2017-05-01T23:38:57.055Z,8.10
2017-05-01T23:41:32.114Z,8.10
2017-05-01T23:59:52.187Z,7.90
